Tiempo atmosférico en la estación meteorológica de Vejer De La Frontera, Cádiz (160 m.)



Fecha
DESCASC
Temp. máxima en grados centígrados (hora)
DESCASC
Temp. mínima en grados centígrados (hora)
DESCASC
Temp. media en grados centígrados
DESCASC
Racha de viento máxima en m/sg (hora)
DESCASC
Velocidad máxima media en intervalos de 10 minutos(hora)
DESCASC
Precipitaciones diarias en mm
DESCASC
Precipitaciones de 00:00 a 06:00 en mm
DESCASC
Precipitaciones de 06:00 a 12:00 en mm
DESCASC
Precipitaciones de 12:00 a 18:00 en mm
DESCASC
Precipitaciones de 18:00 a 24:00 en mm
DESCASC
22-04-2019 20.2 (13:50) 13.1 (03:20) 16.7 13.33 (18:40) 7.22 (19:50) 0 0 0 0 0
21-04-2019 19.8 (16:10) 12.3 (06:30) 16 6.67 (16:20) 3.33 (14:00) 0 0 0 0 0
20-04-2019 19.7 (16:50) 11 (07:30) 15.4 6.67 (15:00) 2.78 (12:00) 0 0 0 0 0
19-04-2019 17.3 (18:50) 11.3 (05:50) 14.3 6.11 (19:00) 3.61 (11:10) 17.1 0 0 17 0.1
18-04-2019 18.9 (16:30) 10.7 (00:00) 14.8 9.17 (20:10) 5.56 (18:20) 6.2 0.1 4.5 1.5 0.1
17-04-2019 18.9 (15:30) 14.3 (00:00) 16.6 14.72 (10:10) 6.67 (06:40) 0 0 0 0 0
16-04-2019 25.5 (16:10) 12.6 (00:00) 19.1 9.17 (21:40) 5 (00:10) 0 0 0 0 0
15-04-2019 23.6 (13:20) 13.9 (00:00) 18.8 12.22 (17:10) 7.5 (17:10) 0 0 0 0 0
14-04-2019 26.6 (18:40) 12.9 (00:00) 19.8 5.28 (16:40) 3.33 (15:20) 0 0 0 0 0
13-04-2019 22.3 (15:00) 12.1 (00:00) 17.2 8.89 (16:40) 5.28 (16:00) 0 0 0 0 0
12-04-2019 22.3 (16:00) 10.8 (00:00) 16.5 8.33 (16:10) 4.72 (21:40) 0 0 0 0 0
11-04-2019 18.8 (16:00) 10.3 (00:00) 14.5 13.89 (17:00) 5.83 (21:10) 0 0 0 0 0
10-04-2019 17.2 (16:00) 9 (00:00) 13.1 11.67 (17:10) 6.67 (19:20) 0 0 0 0 0
09-04-2019 18.1 (15:40) 11.2 (00:00) 14.7 12.78 (15:10) 5.83 (15:20) 0 0 0 0 0
08-04-2019 19.3 (14:20) 11.7 (00:00) 15.5 12.5 (14:40) 7.22 (16:30) 2.4 0.5 0 1 0.9
07-04-2019 17.6 (14:10) 10.6 (00:00) 14.1 14.72 (18:40) 7.78 (16:50) 1.9 1.8 0.1 0 0
06-04-2019 14.6 (16:30) 8.3 (00:00) 11.5 16.11 (18:40) 9.17 (18:30) 9.7 4.4 1.6 3.6 0.1
05-04-2019 14.5 (17:30) 9.4 (00:00) 11.9 16.67 (07:50) 8.89 (08:00) 5.9 0 5.9 0 0
04-04-2019 17.9 (15:40) 8.7 (00:00) 13.3 11.67 (23:40) 6.39 (23:30) 0 0 0 0 0
03-04-2019 22.2 (15:50) 11.9 (00:00) 17.1 8.89 (19:00) 5 (19:30) 0 0 0 0 0
02-04-2019 21.9 (15:50) 11.2 (00:00) 16.5 6.39 (16:40) 3.61 (16:50) 0 0 0 0 0
01-04-2019 19.1 (17:40) 12 (00:00) 15.6 10.28 (04:50) 5.83 (06:10) 12.4 6.5 5.9 0 0
31-03-2019 22.3 (15:40) 11.4 (00:00) 16.8 10.83 (03:50) 5.28 (00:10) 0 0 0 0 0
30-03-2019 18 (13:30) 12.1 (00:00) 15.1 17.5 (11:30) 7.5 (10:20) 0 0 0 0 0
29-03-2019 18 (12:40) 11.9 (00:00) 14.9 17.22 (10:00) 7.78 (13:30) 0 0 0 0 0
28-03-2019 17.8 (12:00) 11.5 (00:00) 14.6 20.56 (14:20) 9.17 (13:40) 0 0 0 0 0
27-03-2019 17.4 (13:30) 12.4 (00:00) 14.9 24.17 (09:40) 11.11 (09:40) 0 0 0 0 0
26-03-2019 18.7 (13:40) 13.9 (00:00) 16.3 22.78 (13:50) 10.28 (13:40) 0 0 0 0 0
25-03-2019 19.4 (13:40) 13 (00:00) 16.2 17.78 (13:30) 8.33 (13:30) 0 0 0 0 0

Gráficas

Temp. máximas Temp. mínimas Temp. medias Precipitaciones Rachas de viento máximas Velocidades máximas media en intervalos de 10 minutos

Datos horarios

Fecha y hora oficial Temperatura (ºC) Velocidad del viento (km/h) Dirección del viento Racha (km/h) Dirección de racha Precipitación (mm) Presión (hPa) Tendencia (hPa) Humedad (%)
2019-04-23 23:00:00 12.8 -- -- 43 Norte 0 -- -- 61
2019-04-23 22:00:00 12.6 -- -- 38 Norte 0 -- -- 61
2019-04-23 21:00:00 12.8 -- -- 43 Norte 0 -- -- 59
2019-04-23 20:00:00 13.7 -- -- 48 Norte 0 -- -- 54
2019-04-23 19:00:00 15.5 -- -- 45 Norte 0 -- -- 48
2019-04-23 18:00:00 14.1 -- -- 46 Norte 0 -- -- 55
2019-04-23 17:00:00 14.4 -- -- 50 Norte 0 -- -- 53
2019-04-23 16:00:00 15.1 -- -- 48 Norte 0 -- -- 52
2019-04-23 15:00:00 16.4 -- -- 37 Norte 0 -- -- 54
2019-04-23 14:00:00 14.7 -- -- 39 Norte 0 -- -- 57
2019-04-23 13:00:00 14 -- -- 35 Norte 0 -- -- 53
2019-04-23 12:00:00 13 -- -- 32 Norte 0 -- -- 61
2019-04-23 11:00:00 11.7 -- -- 19 Norte 0 -- -- 85
2019-04-23 10:00:00 10.5 -- -- 34 Norte 2 -- -- 90
2019-04-23 09:00:00 10.6 -- -- 28 Norte 1.2 -- -- 94
2019-04-23 08:00:00 11 -- -- 40 Norte 2.4 -- -- 95
2019-04-23 07:00:00 11.8 -- -- 42 Norte 1.8 -- -- 95
2019-04-23 06:00:00 13.1 -- -- 42 Norte 1.3 -- -- 95
2019-04-23 05:00:00 14.3 -- -- 38 Norte 0 -- -- 82
2019-04-23 04:00:00 14.4 -- -- 37 Norte 0 -- -- 84
2019-04-23 03:00:00 14.4 -- -- 42 Norte 0 -- -- 80
2019-04-23 02:00:00 14.6 -- -- 39 Norte 0 -- -- 87
2019-04-23 01:00:00 14.5 -- -- 32 Norte 0 -- -- 85
2019-04-23 00:00:00 14.9 -- -- 34 Norte 0 -- -- 85
2019-04-22 23:00:00 14.9 -- -- 37 Norte 0 -- -- 83
2019-04-22 22:00:00 14.8 -- -- 42 Norte 0 -- -- 80
2019-04-22 21:00:00 15 -- -- 45 Norte 0 -- -- 82
2019-04-22 20:00:00 15.4 -- -- 43 Norte 0 -- -- 83
2019-04-22 19:00:00 16 -- -- 48 Norte 0 -- -- 82
2019-04-22 18:00:00 17.2 -- -- 41 Norte 0 -- -- 77
2019-04-22 17:00:00 18.2 -- -- 39 Norte 0 -- -- 72
2019-04-22 16:00:00 18.9 -- -- 45 Norte 0 -- -- 68
2019-04-22 15:00:00 19.2 -- -- 40 Norte 0 -- -- 66
2019-04-22 14:00:00 19.2 -- -- 36 Norte 0 -- -- 66
2019-04-22 13:00:00 19 -- -- 21 Norte 0 -- -- 65
2019-04-22 12:00:00 16.4 -- -- 14 Norte 0 -- -- 80
2019-04-22 11:00:00 15.2 -- -- 13 Norte 0 -- -- 91
2019-04-22 10:00:00 14.9 -- -- 10 Norte 0 -- -- 92
2019-04-22 09:00:00 13.4 -- -- 7 Norte 0 -- -- 94
2019-04-22 08:00:00 13.7 -- -- 10 Norte 0 -- -- 94
2019-04-22 07:00:00 13.7 -- -- 14 Norte 0 -- -- 94
2019-04-22 06:00:00 13.8 -- -- 15 Norte 0 -- -- 94
2019-04-22 05:00:00 13.4 -- -- 18 Norte 0 -- -- 94
2019-04-22 04:00:00 13.3 -- -- 20 Norte 0 -- -- 91
2019-04-22 03:00:00 13.5 -- -- 19 Norte 0 -- -- 90
2019-04-22 02:00:00 13.2 -- -- 18 Norte 0 -- -- 88
2019-04-22 01:00:00 14.1 -- -- 19 Norte 0 -- -- 83
2019-04-22 00:00:00 13.9 -- -- 22 Norte 0 -- -- 83
2019-04-21 23:00:00 14.1 -- -- 24 Norte 0 -- -- 83
2019-04-21 22:00:00 15 -- -- 20 Norte 0 -- -- 76
2019-04-21 21:00:00 16.8 -- -- 13 Norte 0 -- -- 59
2019-04-21 20:00:00 17.1 -- -- 14 Norte 0 -- -- 59
2019-04-21 19:00:00 17.3 -- -- 14 Norte 0 -- -- 60
2019-04-21 18:00:00 17 -- -- 18 Norte 0 -- -- 70
2019-04-21 17:00:00 17.1 -- -- 24 Norte 0 -- -- 66
2019-04-21 16:00:00 18.7 -- -- 19 Norte 0 -- -- 61
2019-04-21 15:00:00 16.8 -- -- 22 Norte 0 -- -- 67
2019-04-21 14:00:00 16.7 -- -- 22 Norte 0 -- -- 67
2019-04-21 13:00:00 16.5 -- -- 17 Norte 0 -- -- 71
2019-04-21 12:00:00 15.7 -- -- 16 Norte 0 -- -- 73
2019-04-21 11:00:00 15 -- -- 10 Norte 0 -- -- 76
2019-04-21 10:00:00 13.8 -- -- 10 Norte 0 -- -- 76
2019-04-21 09:00:00 13.5 -- -- 7 Norte 0 -- -- 80
2019-04-21 08:00:00 12.7 -- -- 5 Norte 0 -- -- 87
2019-04-21 07:00:00 12.3 -- -- 10 Norte 0 -- -- 88
2019-04-21 06:00:00 12.6 -- -- 13 Norte 0 -- -- 87
2019-04-21 05:00:00 12.6 -- -- 13 Norte 0 -- -- 89
2019-04-21 04:00:00 12.8 -- -- 12 Norte 0 -- -- 88
2019-04-21 03:00:00 12.9 -- -- 11 Norte 0 -- -- 86
2019-04-21 02:00:00 13 -- -- 15 Norte 0 -- -- 85
2019-04-21 01:00:00 13.4 -- -- 17 Norte 0 -- -- 82
2019-04-21 00:00:00 13.4 -- -- 13 Norte 0 -- -- 83
2019-04-20 23:00:00 13.8 -- -- 17 Norte 0 -- -- 84
2019-04-20 22:00:00 14.3 -- -- 19 Norte 0 -- -- 84
2019-04-20 21:00:00 15.1 -- -- 11 Norte 0 -- -- 79
2019-04-20 20:00:00 16 -- -- 17 Norte 0 -- -- 73
2019-04-20 19:00:00 18 -- -- 13 Norte 0 -- -- 61
2019-04-20 18:00:00 19 -- -- 16 Norte 0 -- -- 58
2019-04-20 17:00:00 19.2 -- -- 14 Norte 0 -- -- 53
2019-04-20 16:00:00 18.6 -- -- 21 Norte 0 -- -- 56
2019-04-20 15:00:00 18.5 -- -- 24 Norte 0 -- -- 54
2019-04-20 14:00:00 17.8 -- -- 18 Norte 0 -- -- 56
2019-04-20 13:00:00 17.5 -- -- 19 Norte 0 -- -- 60
2019-04-20 12:00:00 14.6 -- -- 21 Norte 0 -- -- 70
2019-04-20 11:00:00 14.2 -- -- 15 Norte 0 -- -- 74
2019-04-20 10:00:00 13 -- -- 13 Norte 0 -- -- 72
2019-04-20 09:00:00 12.2 -- -- 9 Norte 0 -- -- 76
2019-04-20 08:00:00 11.4 -- -- 11 Norte 0 -- -- 77
2019-04-20 07:00:00 11.6 -- -- 6 Norte 0 -- -- 78
2019-04-20 06:00:00 11.9 -- -- 8 Norte 0 -- -- 77
2019-04-20 05:00:00 11.4 -- -- 15 Norte 0 -- -- 77
2019-04-20 04:00:00 11.5 -- -- 10 Norte 0 -- -- 79
2019-04-20 03:00:00 11.7 -- -- 9 Norte 0 -- -- 78
2019-04-20 02:00:00 12.3 -- -- 11 Norte 0 -- -- 76
2019-04-20 01:00:00 12.1 -- -- 11 Norte 0 -- -- 78
2019-04-20 00:00:00 12.4 -- -- 14 Norte 0 -- -- 81
2019-04-19 23:00:00 12.8 -- -- 17 Norte 0 -- -- 83
2019-04-19 22:00:00 13.3 -- -- 17 Norte 0 -- -- 82
2019-04-19 21:00:00 14.1 -- -- 19 Norte 0 -- -- 81
2019-04-19 20:00:00 15.5 -- -- 22 Norte 0 -- -- 72
2019-04-19 19:00:00 16.4 -- -- 22 Norte 0.1 -- -- 72
2019-04-19 18:00:00 15.2 -- -- 8 Norte 0 -- -- 83
2019-04-19 17:00:00 16 -- -- 10 Norte 0 -- -- 77
2019-04-19 16:00:00 14 -- -- 12 Norte 3.3 -- -- 92
2019-04-19 15:00:00 11.5 -- -- 18 Norte 8.4 -- -- 88
2019-04-19 14:00:00 13.2 -- -- 17 Norte 4.2 -- -- 90
2019-04-19 13:00:00 14.7 -- -- 21 Norte 1.1 -- -- 80
2019-04-19 12:00:00 15.8 -- -- 21 Norte 0 -- -- 69
2019-04-19 11:00:00 13.7 -- -- 21 Norte 0 -- -- 85
2019-04-19 10:00:00 15.2 -- -- 11 Norte 0 -- -- 83
2019-04-19 09:00:00 12.3 -- -- 8 Norte 0 -- -- 89
2019-04-19 08:00:00 11.4 -- -- 4 Norte 0 -- -- 88
2019-04-19 07:00:00 11.5 -- -- 4 Norte 0 -- -- 89
2019-04-19 06:00:00 11.3 -- -- 5 Norte 0 -- -- 89
2019-04-19 05:00:00 11.8 -- -- 8 Norte 0 -- -- 87
2019-04-19 04:00:00 12.8 -- -- 10 Norte 0 -- -- 82
2019-04-19 03:00:00 12.8 -- -- 14 Norte 0 -- -- 82
2019-04-19 02:00:00 12.9 -- -- 15 Norte 0 -- -- 82
2019-04-19 01:00:00 13 -- -- 17 Norte 0 -- -- 84
2019-04-19 00:00:00 13.1 -- -- 17 Norte 0 -- -- 84
2019-04-18 23:00:00 13 -- -- 15 Norte 0 -- -- 86
2019-04-18 22:00:00 13.7 -- -- 18 Norte 0.1 -- -- 84
2019-04-18 21:00:00 13.6 -- -- 33 Norte 0 -- -- 75
2019-04-18 20:00:00 15.3 -- -- 31 Norte 0 -- -- 64
2019-04-18 19:00:00 16.3 -- -- 33 Norte 0 -- -- 64
2019-04-18 18:00:00 17.4 -- -- 33 Norte 0 -- -- 58
2019-04-18 17:00:00 18.8 -- -- 31 Norte 0 -- -- 55
2019-04-18 16:00:00 17.5 -- -- 28 Norte 0 -- -- 64
2019-04-18 15:00:00 15.9 -- -- 21 Norte 0 -- -- 77
2019-04-18 14:00:00 13 -- -- 23 Norte 1.4 -- -- 86
2019-04-18 13:00:00 13 -- -- 25 Norte 0.1 -- -- 85
2019-04-18 12:00:00 13.6 -- -- 14 Norte 0 -- -- 89
2019-04-18 11:00:00 11.4 -- -- 13 Norte 1.2 -- -- 96
2019-04-18 10:00:00 11.2 -- -- 9 Norte 0 -- -- 95
2019-04-18 09:00:00 10.9 -- -- 28 Norte 3.1 -- -- 92
2019-04-18 08:00:00 13.3 -- -- 13 Norte 0.2 -- -- 93
2019-04-18 07:00:00 12.8 -- -- 12 Norte 0 -- -- 90
2019-04-18 06:00:00 12.7 -- -- 14 Norte 0 -- -- 90
2019-04-18 05:00:00 13 -- -- 15 Norte 0 -- -- 90
2019-04-18 04:00:00 13.5 -- -- 17 Norte 0.1 -- -- 90
2019-04-18 03:00:00 13.9 -- -- 26 Norte 0 -- -- 88
2019-04-18 02:00:00 14.2 -- -- 21 Norte 0 -- -- 84
2019-04-18 01:00:00 14.8 -- -- 28 Norte 0 -- -- 78
2019-04-18 00:00:00 14.6 -- -- 22 Norte 0 -- -- 74
2019-04-17 23:00:00 14.8 -- -- 15 Norte 0 -- -- 65
2019-04-17 22:00:00 14.5 -- -- 9 Norte 0 -- -- 70
2019-04-17 21:00:00 14.8 -- -- 14 Norte 0 -- -- 67
2019-04-17 20:00:00 15.2 -- -- 27 Norte 0 -- -- 66
2019-04-17 19:00:00 15.6 -- -- 28 Norte 0 -- -- 77
2019-04-17 18:00:00 17.3 -- -- 21 Norte 0 -- -- 75
2019-04-17 17:00:00 18.2 -- -- 30 Norte 0 -- -- 71
2019-04-17 16:00:00 18.4 -- -- 33 Norte 0 -- -- 70
2019-04-17 15:00:00 18.5 -- -- 37 Norte 0 -- -- 70
2019-04-17 14:00:00 17.2 -- -- 45 Norte 0 -- -- 74
2019-04-17 13:00:00 17.6 -- -- 49 Norte 0 -- -- 72
2019-04-17 12:00:00 17.6 -- -- 51 Norte 0 -- -- 72
2019-04-17 11:00:00 16.7 -- -- 53 Norte 0 -- -- 76
2019-04-17 10:00:00 16.3 -- -- 49 Norte 0 -- -- 77
2019-04-17 09:00:00 15.4 -- -- 44 Norte 0 -- -- 78
2019-04-17 08:00:00 14.7 -- -- 42 Norte 0 -- -- 80
2019-04-17 07:00:00 14.9 -- -- 44 Norte 0 -- -- 79
2019-04-17 06:00:00 14.9 -- -- 50 Norte 0 -- -- 77
2019-04-17 05:00:00 14.9 -- -- 35 Norte 0 -- -- 76
2019-04-17 04:00:00 15.1 -- -- 39 Norte 0 -- -- 72
2019-04-17 03:00:00 15.3 -- -- 33 Norte 0 -- -- 67
2019-04-17 02:00:00 15.9 -- -- 37 Norte 0 -- -- 59
2019-04-17 01:00:00 16 -- -- 31 Norte 0 -- -- 59
2019-04-17 00:00:00 16.1 -- -- 32 Norte 0 -- -- 56
2019-04-16 23:00:00 16.2 -- -- 30 Norte 0 -- -- 52
2019-04-16 22:00:00 16.8 -- -- 33 Norte 0 -- -- 52
2019-04-16 21:00:00 17.8 -- -- 28 Norte 0 -- -- 45
2019-04-16 20:00:00 20.4 -- -- 30 Norte 0 -- -- 36
2019-04-16 19:00:00 22.9 -- -- 28 Norte 0 -- -- 31
2019-04-16 18:00:00 23.5 -- -- 17 Norte 0 -- -- 37
2019-04-16 17:00:00 24.8 -- -- 16 Norte 0 -- -- 35
2019-04-16 16:00:00 24.8 -- -- 21 Norte 0 -- -- 32
2019-04-16 15:00:00 23.5 -- -- 15 Norte 0 -- -- 42
2019-04-16 14:00:00 22.7 -- -- 16 Norte 0 -- -- 45
2019-04-16 13:00:00 21.3 -- -- 13 Norte 0 -- -- 49
2019-04-16 12:00:00 20.9 -- -- 10 Norte 0 -- -- 48
2019-04-16 11:00:00 18.3 -- -- 10 Norte 0 -- -- 66
2019-04-16 10:00:00 15.3 -- -- 6 Norte 0 -- -- 82
2019-04-16 09:00:00 13.4 -- -- 6 Norte 0 -- -- 91
2019-04-16 08:00:00 12.8 -- -- 5 Norte 0 -- -- 91
2019-04-16 07:00:00 12.7 -- -- 10 Norte 0 -- -- 92
2019-04-16 06:00:00 13.1 -- -- 12 Norte 0 -- -- 92
2019-04-16 05:00:00 13.3 -- -- 15 Norte 0 -- -- 91
2019-04-16 04:00:00 13.7 -- -- 18 Norte 0 -- -- 91
2019-04-16 03:00:00 14 -- -- 21 Norte 0 -- -- 88
2019-04-16 02:00:00 13.6 -- -- 32 Norte 0 -- -- 87
2019-04-16 01:00:00 13.8 -- -- 30 Norte 0 -- -- 85
2019-04-16 00:00:00 14 -- -- 30 Norte 0 -- -- 84
2019-04-15 23:00:00 14.3 -- -- 28 Norte 0 -- -- 85
2019-04-15 22:00:00 14.5 -- -- 32 Norte 0 -- -- 84
2019-04-15 21:00:00 15.2 -- -- 43 Norte 0 -- -- 83
2019-04-15 20:00:00 17 -- -- 35 Norte 0 -- -- 76
2019-04-15 19:00:00 18.9 -- -- 42 Norte 0 -- -- 71
2019-04-15 18:00:00 19.6 -- -- 44 Norte 0 -- -- 68
2019-04-15 17:00:00 19.7 -- -- 42 Norte 0 -- -- 62
2019-04-15 16:00:00 22.2 -- -- 29 Norte 0 -- -- 55
2019-04-15 15:00:00 20.7 -- -- 40 Norte 0 -- -- 61
2019-04-15 14:00:00 20.3 -- -- 36 Norte 0 -- -- 55
2019-04-15 13:00:00 23.2 -- -- 20 Norte 0 -- -- 45
2019-04-15 12:00:00 21.3 -- -- 19 Norte 0 -- -- 50
2019-04-15 11:00:00 20.7 -- -- 18 Norte 0 -- -- 51
2019-04-15 10:00:00 19.6 -- -- 15 Norte 0 -- -- 48
2019-04-15 09:00:00 18.7 -- -- 13 Sur 0 -- -- 42
2019-04-15 08:00:00 18.7 -- -- 9 Sur 0 -- -- 40
2019-04-15 07:00:00 19.2 -- -- 8 Sur 0 -- -- 41
2019-04-15 06:00:00 18.8 -- -- 10 Este 0 -- -- 41
2019-04-15 05:00:00 19.1 -- -- 13 Sudeste 0 -- -- 42
2019-04-15 04:00:00 17.9 -- -- 12 Este 0 -- -- 46
2019-04-15 03:00:00 18.4 -- -- 11 Este 0 -- -- 47
2019-04-15 02:00:00 18.7 -- -- 12 Este 0 -- -- 46
2019-04-15 01:00:00 19.3 -- -- 6 Oeste 0 -- -- 46
2019-04-15 00:00:00 19.4 -- -- 5 Oeste 0 -- -- 52
2019-04-14 23:00:00 20.4 0 Calma 4 Oeste 0 -- -- 49
2019-04-14 22:00:00 20.4 2 Oeste 5 Oeste 0 -- -- 54
2019-04-14 21:00:00 21.7 0 Calma 2 Oeste 0 -- -- 52
2019-04-14 20:00:00 22.3 0 Calma 12 Oeste 0 -- -- 53
2019-04-14 19:00:00 24.7 7 Oeste 13 Oeste 0 -- -- 47
2019-04-14 18:00:00 26.2 7 Oeste 14 Oeste 0 -- -- 46
2019-04-14 17:00:00 25.6 9 Oeste 19 Oeste 0 -- -- 47
2019-04-14 16:00:00 26.1 8 Sudoeste 19 Sudoeste 0 -- -- 47
2019-04-14 15:00:00 24.1 11 Oeste 18 Oeste 0 -- -- 53
2019-04-14 14:00:00 23.9 8 Oeste 15 Oeste 0 -- -- 54
2019-04-14 13:00:00 23.3 4 Este 12 Sudeste 0 -- -- 48
2019-04-14 12:00:00 21.5 3 Este 8 Sudeste 0 -- -- 55
2019-04-14 11:00:00 19.3 4 Oeste 7 Oeste 0 -- -- 65
2019-04-14 10:00:00 15.8 2 Oeste 6 Oeste 0 -- -- 76
2019-04-14 09:00:00 13.6 3 Oeste 8 Oeste 0 -- -- 88
2019-04-14 08:00:00 13 4 Oeste 7 Oeste 0 -- -- 79
2019-04-14 07:00:00 13.1 3 Oeste 8 Oeste 0 -- -- 77
2019-04-14 06:00:00 14.2 4 Noroeste 8 Noroeste 0 -- -- 77
2019-04-14 05:00:00 14.3 4 Noroeste 8 Norte 0 -- -- 70
2019-04-14 04:00:00 13.4 0 Calma 4 Norte 0 -- -- 82
2019-04-14 03:00:00 13.7 2 Norte 6 Norte 0 -- -- 83
2019-04-14 02:00:00 14 2 Norte 13 Norte 0 -- -- 84
2019-04-14 01:00:00 15 6 Noroeste 17 Noroeste 0 -- -- 73
2019-04-14 00:00:00 15 6 Noroeste 14 Oeste 0 -- -- 77
2019-04-13 23:00:00 15.1 12 Oeste 24 Noroeste 0 -- -- 75
2019-04-13 22:00:00 14.8 13 Oeste 26 Oeste 0 -- -- 77
2019-04-13 21:00:00 15.4 14 Oeste 22 Oeste 0 -- -- 77
2019-04-13 20:00:00 17.4 14 Oeste 23 Oeste 0 -- -- 64
2019-04-13 19:00:00 19.4 14 Oeste 30 Oeste 0 -- -- 56
2019-04-13 18:00:00 20 17 Oeste 31 Oeste 0 -- -- 55
2019-04-13 17:00:00 20.7 17 Oeste 32 Oeste 0 -- -- 53
2019-04-13 16:00:00 20.8 19 Oeste 31 Sudoeste 0 -- -- 49
2019-04-13 15:00:00 22 14 Sudoeste 32 Sudoeste 0 -- -- 49
2019-04-13 14:00:00 21.5 12 Sudoeste 20 Sudoeste 0 -- -- 49
2019-04-13 13:00:00 20.5 10 Sudoeste 18 Sudoeste 0 -- -- 55
2019-04-13 12:00:00 18.9 8 Sudoeste 15 Sudoeste 0 -- -- 62
2019-04-13 11:00:00 17.4 7 Sudoeste 14 Sudoeste 0 -- -- 70
2019-04-13 10:00:00 15.4 5 Sur 10 Sudoeste 0 -- -- 83
2019-04-13 09:00:00 12.8 6 Sudoeste 9 Sudoeste 0 -- -- 90
2019-04-13 08:00:00 12.3 3 Norte 6 Norte 0 -- -- 90
2019-04-13 07:00:00 12.6 3 Norte 5 Norte 0 -- -- 86
2019-04-13 06:00:00 12.4 3 Norte 4 Norte 0 -- -- 82
2019-04-13 05:00:00 12.6 2 Norte 4 Norte 0 -- -- 82
2019-04-13 04:00:00 12.7 2 Norte 5 Norte 0 -- -- 83
2019-04-13 03:00:00 12.8 0 Calma 4 Norte 0 -- -- 84
2019-04-13 02:00:00 12.8 0 Calma 8 Norte 0 -- -- 80
2019-04-13 01:00:00 14.1 5 Norte 15 Oeste 0 -- -- 79
2019-04-13 00:00:00 14.4 6 Noroeste 26 Oeste 0 -- -- 78
2019-04-12 23:00:00 14.6 16 Oeste 28 Oeste 0 -- -- 71
2019-04-12 22:00:00 14.7 17 Oeste 26 Oeste 0 -- -- 69
2019-04-12 21:00:00 15.2 14 Oeste 24 Oeste 0 -- -- 62
2019-04-12 20:00:00 17.1 14 Oeste 27 Oeste 0 -- -- 52
2019-04-12 19:00:00 19 15 Oeste 28 Oeste 0 -- -- 43
2019-04-12 18:00:00 19.9 15 Oeste 28 Sudoeste 0 -- -- 52
2019-04-12 17:00:00 20.9 15 Sudoeste 30 Oeste 0 -- -- 55
2019-04-12 16:00:00 21.1 15 Sudoeste 26 Sudoeste 0 -- -- 51
2019-04-12 15:00:00 21.6 12 Sudoeste 23 Sudoeste 0 -- -- 49
2019-04-12 14:00:00 20.5 9 Sudoeste 18 Sudoeste 0 -- -- 54
2019-04-12 13:00:00 19.6 8 Sudoeste 16 Sudoeste 0 -- -- 62
2019-04-12 12:00:00 18.1 4 Sudoeste 12 Sudoeste 0 -- -- 67
2019-04-12 11:00:00 15.4 4 Sur 11 Sudeste 0 -- -- 77
2019-04-12 10:00:00 14.1 4 Sur 9 Sur 0 -- -- 90
2019-04-12 09:00:00 11.9 2 Nordeste 6 Nordeste 0 -- -- 94
2019-04-12 08:00:00 10.9 4 Nordeste 9 Nordeste 0 -- -- 94
2019-04-12 07:00:00 12.2 0 Calma 9 Sudeste 0 -- -- 95
2019-04-12 06:00:00 12.6 5 Sudeste 9 Sudeste 0 -- -- 95
2019-04-12 05:00:00 12.1 4 Sudeste 12 Sudeste 0 -- -- 94
2019-04-12 04:00:00 12.2 6 Sudeste 13 Sudeste 0 -- -- 94
2019-04-12 03:00:00 12.2 5 Sur 12 Sur 0 -- -- 92
2019-04-12 02:00:00 12.6 4 Oeste 6 Oeste 0 -- -- 89
2019-04-12 01:00:00 12.7 4 Oeste 6 Oeste 0 -- -- 88
2019-04-12 00:00:00 12.9 0 Calma 17 Oeste 0 -- -- 86
2019-04-11 23:00:00 13.5 9 Oeste 22 Oeste 0 -- -- 85
2019-04-11 22:00:00 13.4 15 Oeste 31 Oeste 0 -- -- 84
2019-04-11 21:00:00 13.6 18 Oeste 32 Oeste 0 -- -- 79
2019-04-11 20:00:00 14.9 17 Oeste 31 Oeste 0 -- -- 65
2019-04-11 19:00:00 16.8 18 Oeste 28 Oeste 0 -- -- 58
2019-04-11 18:00:00 17.9 17 Oeste 29 Oeste 0 -- -- 55
2019-04-11 17:00:00 18 18 Oeste 50 Oeste 0 -- -- 58
2019-04-11 16:00:00 18.3 17 Oeste 27 Sudoeste 0 -- -- 55
2019-04-11 15:00:00 18 14 Oeste 30 Oeste 0 -- -- 56
2019-04-11 14:00:00 18.2 15 Oeste 28 Oeste 0 -- -- 55
2019-04-11 13:00:00 17.6 14 Oeste 26 Oeste 0 -- -- 53
2019-04-11 12:00:00 15.9 8 Oeste 18 Oeste 0 -- -- 58
2019-04-11 11:00:00 14.1 6 Oeste 13 Oeste 0 -- -- 62
2019-04-11 10:00:00 12.6 3 Norte 10 Norte 0 -- -- 67
2019-04-11 09:00:00 10.6 5 Noroeste 11 Noroeste 0 -- -- 73
2019-04-11 08:00:00 10.4 7 Noroeste 15 Noroeste 0 -- -- 72
2019-04-11 07:00:00 10.9 8 Noroeste 19 Norte 0 -- -- 70
2019-04-11 06:00:00 11.3 10 Noroeste 24 Norte 0 -- -- 69
2019-04-11 05:00:00 11.5 10 Norte 19 Norte 0 -- -- 72
2019-04-11 04:00:00 12 6 Norte 19 Norte 0 -- -- 79
2019-04-11 03:00:00 12.7 6 Noroeste 20 Oeste 0 -- -- 78
2019-04-11 02:00:00 13.2 10 Oeste 26 Oeste 0 -- -- 77
2019-04-11 01:00:00 13.8 9 Noroeste 23 Noroeste 0 -- -- 74
2019-04-11 00:00:00 13.8 13 Oeste 28 Oeste 0 -- -- 79
2019-04-10 23:00:00 14 14 Oeste 31 Oeste 0 -- -- 84
2019-04-10 22:00:00 13.7 13 Oeste 32 Oeste 0 -- -- 87
2019-04-10 21:00:00 13.8 17 Oeste 37 Oeste 0 -- -- 82
2019-04-10 20:00:00 14.8 19 Oeste 42 Sudoeste 0 -- -- 74
2019-04-10 19:00:00 15 20 Oeste 39 Oeste 0 -- -- 71
2019-04-10 18:00:00 16.4 18 Oeste 42 Oeste 0 -- -- 64
2019-04-10 17:00:00 15.7 19 Oeste 38 Oeste 0 -- -- 60
2019-04-10 16:00:00 16.8 15 Oeste 37 Oeste 0 -- -- 54
2019-04-10 15:00:00 15.8 18 Oeste 38 Oeste 0 -- -- 54
2019-04-10 14:00:00 15.2 19 Oeste 37 Sudoeste 0 -- -- 56
2019-04-10 13:00:00 14.9 15 Oeste 32 Sudoeste 0 -- -- 58
2019-04-10 12:00:00 14.4 10 Noroeste 23 Oeste 0 -- -- 59
2019-04-10 11:00:00 12.8 9 Noroeste 18 Oeste 0 -- -- 67
2019-04-10 10:00:00 11 7 Noroeste 24 Norte 0 -- -- 80
2019-04-10 09:00:00 10 8 Noroeste 21 Oeste 0 -- -- 82
2019-04-10 08:00:00 9.1 8 Oeste 14 Noroeste 0 -- -- 84
2019-04-10 07:00:00 9.7 7 Noroeste 23 Norte 0 -- -- 82
2019-04-10 06:00:00 10 9 Noroeste 27 Norte 0 -- -- 80
2019-04-10 05:00:00 10.6 10 Noroeste 24 Norte 0 -- -- 78
2019-04-10 04:00:00 11.2 9 Noroeste 22 Norte 0 -- -- 79
2019-04-10 03:00:00 11.8 10 Noroeste 24 Noroeste 0 -- -- 76
2019-04-10 02:00:00 12.4 10 Noroeste 26 Noroeste 0 -- -- 71
2019-04-10 01:00:00 13 9 Noroeste 22 Oeste 0 -- -- 80
2019-04-10 00:00:00 12.6 9 Oeste 26 Oeste 0 -- -- 84
2019-04-09 23:00:00 12.7 13 Oeste 30 Sudoeste 0 -- -- 81
2019-04-09 22:00:00 12.9 15 Oeste 29 Oeste 0 -- -- 77
2019-04-09 21:00:00 13.2 15 Oeste 33 Oeste 0 -- -- 72
2019-04-09 20:00:00 14.5 16 Oeste 39 Oeste 0 -- -- 66
2019-04-09 19:00:00 15.9 19 Oeste 42 Oeste 0 -- -- 59
2019-04-09 18:00:00 16.5 21 Sudoeste 34 Sudoeste 0 -- -- 58
2019-04-09 17:00:00 15.2 15 Oeste 36 Oeste 0 -- -- 65
2019-04-09 16:00:00 15.8 18 Oeste 46 Sudoeste 0 -- -- 61
2019-04-09 15:00:00 15.7 18 Oeste 41 Oeste 0 -- -- 55
2019-04-09 14:00:00 15.6 16 Oeste 33 Oeste 0 -- -- 65
2019-04-09 13:00:00 15.2 15 Oeste 34 Sudoeste 0 -- -- 60
2019-04-09 12:00:00 15.6 19 Oeste 35 Oeste 0 -- -- 65
2019-04-09 11:00:00 15 15 Oeste 30 Oeste 0 -- -- 66
2019-04-09 10:00:00 13.7 8 Oeste 16 Oeste 0 -- -- 73
2019-04-09 09:00:00 12.1 8 Oeste 18 Oeste 0 -- -- 76
2019-04-09 08:00:00 11.6 6 Noroeste 15 Oeste 0 -- -- 77
2019-04-09 07:00:00 11.7 8 Oeste 16 Oeste 0 -- -- 77
2019-04-09 06:00:00 11.6 10 Oeste 16 Oeste 0 -- -- 78
2019-04-09 05:00:00 11.8 6 Noroeste 17 Oeste 0 -- -- 73
2019-04-09 04:00:00 12 9 Oeste 21 Noroeste 0 -- -- 75
2019-04-09 03:00:00 12.3 12 Oeste 24 Oeste 0 -- -- 79
2019-04-09 02:00:00 12 9 Oeste 24 Oeste 0 -- -- 82
2019-04-09 01:00:00 12.2 10 Oeste 29 Sudoeste 0 -- -- 86
2019-04-09 00:00:00 12.7 16 Oeste 34 Oeste 0 -- -- 88
2019-04-08 23:00:00 12.5 15 Oeste 30 Oeste 0 -- -- 86
2019-04-08 22:00:00 12.1 11 Oeste 40 Sudoeste 0.1 -- -- 90
2019-04-08 21:00:00 13.3 21 Oeste 40 Oeste 0 -- -- 92
2019-04-08 20:00:00 13.6 17 Sudoeste 31 Sudoeste 0 -- -- 94
2019-04-08 19:00:00 13.3 17 Oeste 30 Oeste 0.8 -- -- 94
2019-04-08 18:00:00 13.9 13 Oeste 31 Oeste 1 -- -- 93
2019-04-08 17:00:00 16.1 21 Sudoeste 43 Sudoeste 0 -- -- 74
2019-04-08 16:00:00 18.5 23 Sudoeste 45 Oeste 0 -- -- 65
2019-04-08 15:00:00 18.3 23 Sudoeste 45 Sudoeste 0 -- -- 65
2019-04-08 14:00:00 18.3 21 Sudoeste 41 Sudoeste 0 -- -- 62
2019-04-08 13:00:00 17.1 20 Sudoeste 42 Oeste 0 -- -- 72
2019-04-08 12:00:00 15.9 18 Sudoeste 36 Sudoeste 0 -- -- 77
2019-04-08 11:00:00 14.9 19 Sudoeste 36 Oeste 0 -- -- 79
2019-04-08 10:00:00 14.4 17 Oeste 31 Sudoeste 0 -- -- 92
2019-04-08 09:00:00 13.9 12 Sudoeste 26 Sudoeste 0 -- -- 95
2019-04-08 08:00:00 13.2 14 Sudoeste 23 Sudoeste 0 -- -- 95
2019-04-08 07:00:00 12.7 9 Sudoeste 19 Sudoeste 0 -- -- 91
2019-04-08 06:00:00 12.4 9 Sudoeste 28 Sudoeste 0.1 -- -- 90
2019-04-08 05:00:00 13.7 14 Sudoeste 30 Sudoeste 0.1 -- -- 95
2019-04-08 04:00:00 13.8 15 Sudoeste 26 Sudoeste 0 -- -- 95
2019-04-08 03:00:00 13.2 15 Sudoeste 27 Sudoeste 0 -- -- 94
2019-04-08 02:00:00 12.8 16 Sudoeste 36 Sudoeste 0.2 -- -- 94
2019-04-08 01:00:00 14.3 15 Sudoeste 30 Oeste 0.1 -- -- 95
2019-04-08 00:00:00 14.1 15 Sudoeste 29 Sudoeste 0 -- -- 94
2019-04-07 23:00:00 14.2 17 Sudoeste 33 Sudoeste 0 -- -- 94
2019-04-07 22:00:00 14.2 17 Sudoeste 41 Oeste 0 -- -- 92
2019-04-07 21:00:00 14.7 22 Sudoeste 44 Sudoeste 0 -- -- 90
2019-04-07 20:00:00 15 25 Sudoeste 49 Oeste 0 -- -- 88
2019-04-07 19:00:00 15.3 24 Sudoeste 53 Sudoeste 0 -- -- 84
2019-04-07 18:00:00 15.2 24 Sudoeste 47 Sudoeste 0 -- -- 79
2019-04-07 17:00:00 15.4 24 Sudoeste 47 Sudoeste 0 -- -- 77
2019-04-07 16:00:00 15.4 24 Sudoeste 43 Sudoeste 0 -- -- 74
2019-04-07 15:00:00 16.4 25 Sudoeste 47 Sudoeste 0 -- -- 68
2019-04-07 14:00:00 16.4 26 Oeste 46 Oeste 0 -- -- 68
2019-04-07 13:00:00 16.7 22 Sudoeste 39 Sudoeste 0 -- -- 69
2019-04-07 12:00:00 15.3 21 Sudoeste 49 Oeste 0 -- -- 74
2019-04-07 11:00:00 13.9 24 Oeste 49 Oeste 0 -- -- 67
2019-04-07 10:00:00 13.3 24 Oeste 49 Oeste 0.1 -- -- 65
2019-04-07 09:00:00 12.5 19 Oeste 36 Oeste 0 -- -- 72
2019-04-07 08:00:00 11.7 14 Oeste 36 Oeste 0 -- -- 82
2019-04-07 07:00:00 12.2 20 Oeste 41 Oeste 0 -- -- 73
2019-04-07 06:00:00 12.1 18 Oeste 37 Sudoeste 0 -- -- 76
2019-04-07 05:00:00 11.8 20 Oeste 46 Oeste 0 -- -- 75
2019-04-07 04:00:00 11.3 16 Oeste 38 Sudoeste 0 -- -- 81
2019-04-07 03:00:00 11.2 18 Oeste 34 Oeste 1.3 -- -- 87
2019-04-07 02:00:00 10.7 19 Oeste 42 Oeste 0.5 -- -- 89
2019-04-07 01:00:00 12.1 18 Oeste 38 Sudoeste 0 -- -- 72
2019-04-07 00:00:00 12.2 22 Oeste 47 Oeste 0 -- -- 70
2019-04-06 23:00:00 12.1 21 Oeste 53 Sur 0 -- -- 73
2019-04-06 22:00:00 12.1 22 Oeste 53 Oeste 0 -- -- 68
2019-04-06 21:00:00 12.1 26 Oeste 51 Oeste 0 -- -- 70
2019-04-06 20:00:00 13 27 Oeste 51 Oeste 0 -- -- 67
2019-04-06 19:00:00 13 25 Oeste 58 Oeste 0.1 -- -- 67
2019-04-06 18:00:00 12.8 28 Oeste 49 Sudoeste 0.1 -- -- 83
2019-04-06 17:00:00 10.5 24 Oeste 51 Oeste 1.4 -- -- 90
2019-04-06 16:00:00 14 26 Oeste 46 Sudoeste 0 -- -- 74
2019-04-06 15:00:00 10.9 17 Oeste 41 Noroeste 1.5 -- -- 91
2019-04-06 14:00:00 10.8 19 Oeste 46 Oeste 0.5 -- -- 85
2019-04-06 13:00:00 11.9 21 Sudoeste 45 Sudoeste 0.1 -- -- 86
2019-04-06 12:00:00 12.7 13 Oeste 35 Oeste 0 -- -- 79
2019-04-06 11:00:00 11.5 12 Oeste 39 Oeste 0.1 -- -- 76
2019-04-06 10:00:00 10.7 5 Noroeste 39 Sudoeste 0.1 -- -- 82
2019-04-06 09:00:00 10.5 20 Oeste 35 Oeste 0 -- -- 76
2019-04-06 08:00:00 9.7 17 Sudoeste 29 Sudoeste 0 -- -- 82
2019-04-06 07:00:00 9.1 10 Oeste 49 Oeste 1.4 -- -- 84
2019-04-06 06:00:00 8.3 17 Oeste 47 Oeste 1.3 -- -- 86
2019-04-06 05:00:00 9.8 24 Oeste 50 Oeste 0.1 -- -- 79
2019-04-06 04:00:00 10 15 Oeste 36 Oeste 0.1 -- -- 85
2019-04-06 03:00:00 8.8 11 Oeste 47 Oeste 2.9 -- -- 88
2019-04-06 02:00:00 11.1 12 Oeste 28 Oeste 0 -- -- 67
2019-04-06 01:00:00 11.2 15 Oeste 38 Oeste 0 -- -- 65
2019-04-06 00:00:00 11.5 21 Oeste 41 Noroeste 0 -- -- 61
2019-04-05 23:00:00 11.6 19 Oeste 44 Oeste 0 -- -- 61
2019-04-05 22:00:00 11.5 15 Oeste 46 Sudoeste 0 -- -- 63
2019-04-05 21:00:00 11.7 20 Oeste 46 Oeste 0 -- -- 64
2019-04-05 20:00:00 12.3 22 Oeste 56 Oeste 0 -- -- 57
2019-04-05 19:00:00 13.6 25 Oeste 51 Oeste 0 -- -- 51
2019-04-05 18:00:00 13.6 27 Oeste 53 Oeste 0 -- -- 50
2019-04-05 17:00:00 13.7 27 Oeste 55 Oeste 0 -- -- 48
2019-04-05 16:00:00 13.6 27 Oeste 55 Oeste 0 -- -- 52
2019-04-05 15:00:00 12.4 23 Oeste 46 Oeste 0 -- -- 54
2019-04-05 14:00:00 12.7 23 Oeste 46 Oeste 0 -- -- 60
2019-04-05 13:00:00 12.1 24 Oeste 50 Oeste 0 -- -- 69
2019-04-05 12:00:00 10.4 22 Oeste 49 Oeste 0.8 -- -- 88
2019-04-05 11:00:00 11.7 22 Sudoeste 42 Sudoeste 0 -- -- 88
2019-04-05 10:00:00 11.2 21 Sudoeste 36 Sudoeste 0.8 -- -- 94
2019-04-05 09:00:00 10.1 17 Sudoeste 57 Sudoeste 3.5 -- -- 95
2019-04-05 08:00:00 11.8 32 Sudoeste 60 Sudoeste 0.3 -- -- 90
2019-04-05 07:00:00 11.5 25 Sudoeste 52 Sudoeste 0.5 -- -- 91
2019-04-05 06:00:00 12.4 24 Sudoeste 47 Sudoeste 0 -- -- 78
2019-04-05 05:00:00 12.3 24 Sudoeste 44 Sudoeste 0 -- -- 70
2019-04-05 04:00:00 12.4 18 Sudoeste 37 Sudoeste 0 -- -- 64
2019-04-05 03:00:00 12.4 19 Sudoeste 39 Sudoeste 0 -- -- 65
2019-04-05 02:00:00 12.1 18 Sudoeste 40 Oeste 0 -- -- 71
2019-04-05 01:00:00 12.4 23 Oeste 42 Sudoeste 0 -- -- 63
2019-04-05 00:00:00 12.3 21 Oeste 42 Sudoeste 0 -- -- 62
2019-04-04 23:00:00 12.4 18 Oeste 34 Oeste 0 -- -- 61
2019-04-04 22:00:00 11.4 14 Sudoeste 27 Sudoeste 0 -- -- 57
2019-04-04 21:00:00 11.6 17 Sudoeste 32 Oeste 0 -- -- 58
2019-04-04 20:00:00 13.2 19 Oeste 38 Sudoeste 0 -- -- 53
2019-04-04 19:00:00 14.8 18 Sudoeste 33 Sudoeste 0 -- -- 52
2019-04-04 18:00:00 15.3 18 Oeste 35 Sudoeste 0 -- -- 54
2019-04-04 17:00:00 14.6 16 Oeste 36 Sudoeste 0 -- -- 59
2019-04-04 16:00:00 16.9 16 Oeste 33 Oeste 0 -- -- 49
2019-04-04 15:00:00 17 15 Oeste 32 Oeste 0 -- -- 44
2019-04-04 14:00:00 17 16 Oeste 33 Oeste 0 -- -- 42
2019-04-04 13:00:00 16.4 14 Oeste 27 Oeste 0 -- -- 43
2019-04-04 12:00:00 16.3 8 Sudoeste 15 Sudoeste 0 -- -- 46
2019-04-04 11:00:00 13.4 4 Oeste 9 Oeste 0 -- -- 56
2019-04-04 10:00:00 11.3 0 Calma 13 Norte 0 -- -- 60
2019-04-04 09:00:00 9.3 2 Noroeste 13 Norte 0 -- -- 66
2019-04-04 08:00:00 9.8 6 Noroeste 17 Norte 0 -- -- 60
2019-04-04 07:00:00 10.4 8 Noroeste 17 Norte 0 -- -- 59
2019-04-04 06:00:00 10.5 8 Noroeste 19 Noroeste 0 -- -- 60
2019-04-04 05:00:00 10.4 9 Oeste 21 Noroeste 0 -- -- 63
2019-04-04 04:00:00 11.4 9 Noroeste 24 Noroeste 0 -- -- 60
2019-04-04 03:00:00 12.4 10 Noroeste 22 Noroeste 0 -- -- 61
2019-04-04 02:00:00 13.3 9 Noroeste 21 Oeste 0 -- -- 62
2019-04-04 01:00:00 13.1 9 Oeste 22 Oeste 0 -- -- 84
2019-04-04 00:00:00 13 10 Oeste 21 Oeste 0 -- -- 86
2019-04-03 23:00:00 13.1 11 Oeste 20 Oeste 0 -- -- 83
2019-04-03 22:00:00 13.2 10 Oeste 19 Oeste 0 -- -- 78
2019-04-03 21:00:00 14.1 9 Oeste 26 Oeste 0 -- -- 68
2019-04-03 20:00:00 16.9 13 Oeste 32 Oeste 0 -- -- 44
2019-04-03 19:00:00 18.6 17 Oeste 32 Noroeste 0 -- -- 41
2019-04-03 18:00:00 20.2 15 Oeste 28 Oeste 0 -- -- 37
2019-04-03 17:00:00 21.5 13 Oeste 30 Oeste 0 -- -- 40
2019-04-03 16:00:00 21.1 12 Oeste 28 Noroeste 0 -- -- 44
2019-04-03 15:00:00 21.2 13 Oeste 28 Oeste 0 -- -- 53
2019-04-03 14:00:00 19.3 12 Oeste 24 Oeste 0 -- -- 62
2019-04-03 13:00:00 19.1 12 Oeste 22 Oeste 0 -- -- 67
2019-04-03 12:00:00 17.9 9 Oeste 18 Oeste 0 -- -- 68
2019-04-03 11:00:00 16.6 8 Sudoeste 15 Oeste 0 -- -- 71
2019-04-03 10:00:00 15.6 4 Norte 10 Norte 0 -- -- 65
2019-04-03 09:00:00 13.8 2 Norte 5 Norte 0 -- -- 72
2019-04-03 08:00:00 11.9 2 Norte 6 Norte 0 -- -- 89
2019-04-03 07:00:00 12.7 2 Norte 6 Norte 0 -- -- 85
2019-04-03 06:00:00 13.3 2 Norte 13 Norte 0 -- -- 82
2019-04-03 05:00:00 13.7 8 Norte 14 Norte 0 -- -- 83
2019-04-03 04:00:00 13.6 7 Norte 14 Norte 0 -- -- 84
2019-04-03 03:00:00 14 6 Noroeste 18 Norte 0 -- -- 80
2019-04-03 02:00:00 14.4 7 Noroeste 13 Norte 0 -- -- 77
2019-04-03 01:00:00 15.2 6 Noroeste 18 Norte 0 -- -- 66
2019-04-03 00:00:00 15.3 6 Noroeste 13 Noroeste 0 -- -- 67
2019-04-02 23:00:00 16 3 Noroeste 13 Oeste 0 -- -- 60
2019-04-02 22:00:00 16 8 Oeste 18 Oeste 0 -- -- 65
2019-04-02 21:00:00 16.7 6 Noroeste 13 Norte 0 -- -- 65
2019-04-02 20:00:00 16.9 9 Oeste 16 Sudoeste 0 -- -- 70
2019-04-02 19:00:00 19.5 8 Oeste 17 Oeste 0 -- -- 60
2019-04-02 18:00:00 18.4 10 Oeste 23 Oeste 0 -- -- 65
2019-04-02 17:00:00 19.1 13 Oeste 23 Oeste 0 -- -- 55
2019-04-02 16:00:00 20.9 8 Oeste 18 Oeste 0 -- -- 49
2019-04-02 15:00:00 21.1 8 Oeste 18 Oeste 0 -- -- 49
2019-04-02 14:00:00 20.3 2 Nordeste 11 Sudeste 0 -- -- 37
2019-04-02 13:00:00 19.3 5 Este 14 Este 0 -- -- 48
2019-04-02 12:00:00 17.4 4 Nordeste 12 Nordeste 0 -- -- 59
2019-04-02 11:00:00 14.8 4 Nordeste 11 Nordeste 0 -- -- 82
2019-04-02 10:00:00 12.2 4 Este 6 Este 0 -- -- 95
2019-04-02 09:00:00 11.5 0 Calma 6 Nordeste 0 -- -- 95
2019-04-02 08:00:00 11.7 2 Nordeste 4 Nordeste 0 -- -- 95
2019-04-02 07:00:00 11.9 0 Calma 4 Nordeste 0 -- -- 95
2019-04-02 06:00:00 12 0 Calma 9 Este 0 -- -- 95
2019-04-02 05:00:00 12.3 4 Sur 8 Sur 0 -- -- 95
2019-04-02 04:00:00 12 5 Sur 8 Sur 0 -- -- 94
2019-04-02 03:00:00 12.6 0 Calma 5 Oeste 0 -- -- 92
2019-04-02 02:00:00 13.2 5 Oeste 7 Oeste 0 -- -- 92
2019-04-02 01:00:00 13.1 0 Calma 5 Oeste 0 -- -- 91
2019-04-02 00:00:00 13.6 3 Oeste 7 Oeste 0 -- -- 90
2019-04-01 23:00:00 13.6 5 Oeste 10 Oeste 0 -- -- 89
2019-04-01 22:00:00 13.9 6 Oeste 13 Sudoeste 0 -- -- 88
2019-04-01 21:00:00 14.2 8 Sudoeste 20 Sudoeste 0 -- -- 83
2019-04-01 20:00:00 15.8 15 Sudoeste 28 Sudoeste 0 -- -- 72
2019-04-01 19:00:00 17 13 Oeste 28 Sudoeste 0 -- -- 70
2019-04-01 18:00:00 18.3 15 Sudoeste 28 Sudoeste 0 -- -- 61
2019-04-01 17:00:00 18 17 Sudoeste 32 Sudoeste 0 -- -- 69
2019-04-01 16:00:00 16.8 16 Sudoeste 30 Sudoeste 0 -- -- 72
2019-04-01 15:00:00 17.3 17 Sudoeste 28 Sudoeste 0 -- -- 66
2019-04-01 14:00:00 17 17 Sudoeste 29 Sudoeste 0 -- -- 64
2019-04-01 13:00:00 16.8 15 Sudoeste 29 Sudoeste 0 -- -- 77
2019-04-01 12:00:00 14.8 13 Sudoeste 24 Sudoeste 0 -- -- 89
2019-04-01 11:00:00 13.2 9 Sur 30 Sur 0.8 -- -- 94
2019-04-01 10:00:00 12.9 14 Sur 28 Sur 3 -- -- 95
2019-04-01 09:00:00 12.8 14 Sur 28 Sur 0.6 -- -- 94
2019-04-01 08:00:00 12.9 13 Sur 27 Sudoeste 1.5 -- -- 95
2019-04-01 07:00:00 13.5 21 Sudoeste 33 Sudoeste 0 -- -- 95
2019-04-01 06:00:00 13.9 13 Sudoeste 29 Sur 2.6 -- -- 95
2019-04-01 05:00:00 12.3 17 Sur 37 Sur 3.8 -- -- 89
2019-04-01 04:00:00 14 12 Sur 27 Sur 0.1 -- -- 94
2019-04-01 03:00:00 14 12 Sur 24 Sur 0 -- -- 94
2019-04-01 02:00:00 14.3 11 Sur 23 Sur 0 -- -- 95
2019-04-01 01:00:00 14 8 Sur 15 Sur 0 -- -- 95
2019-04-01 00:00:00 13.9 9 Sur 16 Sur 0 -- -- 94
2019-03-31 23:00:00 14 9 Sur 18 Sudoeste 0 -- -- 94
2019-03-31 22:00:00 14.4 11 Sudoeste 24 Sudoeste 0 -- -- 92
2019-03-31 21:00:00 14.8 13 Sudoeste 22 Sudoeste 0 -- -- 90
2019-03-31 20:00:00 16.1 13 Sudoeste 24 Sudoeste 0 -- -- 80
2019-03-31 19:00:00 17.9 15 Sudoeste 27 Sudoeste 0 -- -- 66
2019-03-31 18:00:00 20.3 14 Sudoeste 29 Sudoeste 0 -- -- 56
2019-03-31 17:00:00 21.3 14 Sudoeste 29 Sudoeste 0 -- -- 54
2019-03-31 16:00:00 21.8 12 Sudoeste 27 Sudoeste 0 -- -- 53
2019-03-31 15:00:00 20.8 10 Sur 24 Sur 0 -- -- 56
2019-03-31 14:00:00 20.8 8 Sudeste 22 Sur 0 -- -- 59
2019-03-31 13:00:00 20 6 Sudeste 19 Este 0 -- -- 61
2019-03-31 12:00:00 18.1 8 Sudeste 19 Este 0 -- -- 66
2019-03-31 11:00:00 14.6 9 Este 23 Este 0 -- -- 82
2019-03-31 10:00:00 12.4 9 Este 19 Este 0 -- -- 89
2019-03-31 09:00:00 11.6 10 Este 23 Este 0 -- -- 92
2019-03-31 08:00:00 11.7 10 Este 31 Este 0 -- -- 90
2019-03-31 07:00:00 11.6 13 Este 33 Este 0 -- -- 89
2019-03-31 06:00:00 12.1 15 Este 38 Este 0 -- -- 90
2019-03-31 05:00:00 12.8 11 Este 38 Este 0 -- -- 90
2019-03-31 03:00:00 13.3 14 Este 34 Este 0 -- -- 90
2019-03-31 01:00:00 13 17 Este 35 Este 0 -- -- 89
2019-03-31 00:00:00 12.9 18 Este 37 Este 0 -- -- 89
2019-03-30 23:00:00 13.2 19 Este 42 Sudeste 0 -- -- 88
2019-03-30 22:00:00 13.4 17 Este 35 Este 0 -- -- 85
2019-03-30 21:00:00 13.3 13 Este 32 Este 0 -- -- 85
2019-03-30 20:00:00 13.4 13 Este 34 Este 0 -- -- 85
2019-03-30 19:00:00 13.9 17 Este 42 Sudeste 0 -- -- 82
2019-03-30 18:00:00 14.4 19 Este 45 Este 0 -- -- 78
2019-03-30 17:00:00 15.2 20 Este 45 Este 0 -- -- 76
2019-03-30 16:00:00 15.6 18 Este 47 Este 0 -- -- 73
2019-03-30 15:00:00 16.6 21 Este 53 Este 0 -- -- 72
2019-03-30 14:00:00 16.2 24 Este 55 Este 0 -- -- 71
2019-03-30 13:00:00 17.2 22 Este 55 Este 0 -- -- 67
2019-03-30 12:00:00 16.1 23 Este 63 Este 0 -- -- 70
2019-03-30 11:00:00 15.8 24 Este 59 Este 0 -- -- 72
2019-03-30 10:00:00 15.4 24 Este 56 Este 0 -- -- 72
2019-03-30 09:00:00 14.1 24 Este 50 Este 0 -- -- 78
2019-03-30 08:00:00 12.7 19 Este 47 Este 0 -- -- 82
2019-03-30 07:00:00 12.3 21 Este 51 Este 0 -- -- 81
2019-03-30 06:00:00 12.2 21 Este 50 Este 0 -- -- 81
2019-03-30 05:00:00 12.5 24 Este 48 Este 0 -- -- 80
2019-03-30 04:00:00 12.7 19 Este 42 Este 0 -- -- 77
2019-03-30 03:00:00 12.6 18 Este 45 Este 0 -- -- 77
2019-03-30 02:00:00 12.6 22 Este 51 Este 0 -- -- 77
2019-03-30 01:00:00 12.6 23 Este 48 Este 0 -- -- 79
2019-03-30 00:00:00 12.7 22 Este 60 Este 0 -- -- 78
2019-03-29 23:00:00 12.9 24 Este 55 Este 0 -- -- 77
2019-03-29 22:00:00 12.7 20 Este 47 Este 0 -- -- 77
2019-03-29 21:00:00 12.9 17 Este 45 Este 0 -- -- 77
2019-03-29 20:00:00 13.2 19 Este 40 Este 0 -- -- 74
2019-03-29 19:00:00 14.1 19 Este 45 Este 0 -- -- 71
2019-03-29 18:00:00 15.4 22 Este 53 Este 0 -- -- 67
2019-03-29 17:00:00 16.2 22 Este 53 Este 0 -- -- 66
2019-03-29 16:00:00 16.1 22 Este 44 Este 0 -- -- 66
2019-03-29 15:00:00 16.1 23 Este 55 Este 0 -- -- 66
2019-03-29 14:00:00 16.1 23 Este 55 Este 0 -- -- 66
2019-03-29 13:00:00 17.3 27 Este 55 Este 0 -- -- 62
2019-03-29 12:00:00 16.5 25 Este 54 Este 0 -- -- 65
2019-03-29 11:00:00 15.3 24 Este 59 Este 0 -- -- 66
2019-03-29 10:00:00 15.4 25 Este 62 Este 0 -- -- 67
2019-03-29 09:00:00 14 28 Este 58 Este 0 -- -- 72
2019-03-29 08:00:00 12.6 19 Este 46 Sudeste 0 -- -- 76
2019-03-29 07:00:00 12.4 21 Este 44 Este 0 -- -- 74
2019-03-29 06:00:00 12.3 21 Este 52 Este 0 -- -- 73
2019-03-29 05:00:00 12.1 21 Este 46 Este 0 -- -- 76
2019-03-29 04:00:00 12 22 Este 50 Este 0 -- -- 76
2019-03-29 03:00:00 12 24 Este 53 Este 0 -- -- 73
2019-03-29 02:00:00 12.2 23 Este 57 Este 0 -- -- 73
2019-03-29 01:00:00 12.3 22 Este 53 Este 0 -- -- 73
2019-03-29 00:00:00 12.4 27 Este 67 Sudeste 0 -- -- 71
2019-03-28 23:00:00 12.6 23 Este 55 Este 0 -- -- 67
2019-03-28 22:00:00 12.6 21 Este 51 Este 0 -- -- 69
2019-03-28 21:00:00 12.6 21 Este 55 Este 0 -- -- 72
2019-03-28 20:00:00 13.1 23 Este 51 Sudeste 0 -- -- 71
2019-03-28 19:00:00 14.4 21 Este 55 Este 0 -- -- 61
2019-03-28 18:00:00 14.8 27 Este 61 Este 0 -- -- 62
2019-03-28 17:00:00 16.2 27 Este 62 Este 0 -- -- 60
2019-03-28 16:00:00 16.9 27 Este 65 Este 0 -- -- 55
2019-03-28 15:00:00 16.5 30 Este 74 Este 0 -- -- 58
2019-03-28 14:00:00 15.9 31 Este 69 Este 0 -- -- 59
2019-03-28 13:00:00 17.4 28 Este 59 Este 0 -- -- 56
2019-03-28 12:00:00 17 22 Este 53 Este 0 -- -- 55
2019-03-28 11:00:00 15.5 28 Este 63 Este 0 -- -- 61
2019-03-28 10:00:00 15.2 24 Este 63 Este 0 -- -- 63
2019-03-28 09:00:00 13.7 18 Este 58 Este 0 -- -- 65
2019-03-28 08:00:00 12.3 20 Este 50 Este 0 -- -- 66
2019-03-28 07:00:00 11.7 18 Este 52 Este 0 -- -- 68
2019-03-28 06:00:00 11.7 17 Este 48 Este 0 -- -- 68
2019-03-28 05:00:00 11.9 24 Este 46 Este 0 -- -- 70
2019-03-28 04:00:00 11.8 19 Este 49 Este 0 -- -- 67
2019-03-28 03:00:00 12 22 Este 50 Este 0 -- -- 67
2019-03-28 02:00:00 12.2 20 Este 51 Este 0 -- -- 66
2019-03-28 01:00:00 12.4 20 Este 49 Este 0 -- -- 66
2019-03-28 00:00:00 12.7 24 Este 54 Sudeste 0 -- -- 66
2019-03-27 23:00:00 12.8 24 Este 48 Este 0 -- -- 65
2019-03-27 22:00:00 12.7 27 Este 54 Este 0 -- -- 60
2019-03-27 21:00:00 12.6 17 Este 48 Este 0 -- -- 66
2019-03-27 20:00:00 12.8 18 Este 50 Este 0 -- -- 65
2019-03-27 19:00:00 13.6 22 Este 52 Este 0 -- -- 60
2019-03-27 18:00:00 15 20 Este 53 Este 0 -- -- 57
2019-03-27 17:00:00 15.9 25 Este 59 Este 0 -- -- 53
2019-03-27 16:00:00 16.3 29 Este 62 Este 0 -- -- 52
2019-03-27 15:00:00 16.4 28 Este 65 Este 0 -- -- 50
2019-03-27 14:00:00 15.6 27 Este 77 Este 0 -- -- 51
2019-03-27 13:00:00 16 29 Este 68 Este 0 -- -- 52
2019-03-27 12:00:00 16.6 29 Este 66 Este 0 -- -- 52
2019-03-27 11:00:00 15.4 26 Este 66 Este 0 -- -- 59
2019-03-27 10:00:00 14.9 36 Este 87 Este 0 -- -- 59
2019-03-27 09:00:00 14 32 Este 72 Este 0 -- -- 59
2019-03-27 08:00:00 12.8 29 Este 64 Este 0 -- -- 62
2019-03-27 07:00:00 12.7 33 Este 73 Este 0 -- -- 60
2019-03-27 06:00:00 12.8 31 Este 64 Este 0 -- -- 62
2019-03-27 05:00:00 12.8 27 Este 66 Este 0 -- -- 61
2019-03-27 04:00:00 12.9 28 Este 59 Este 0 -- -- 64
2019-03-27 03:00:00 13.2 27 Este 65 Este 0 -- -- 61
2019-03-27 02:00:00 13.3 24 Este 67 Este 0 -- -- 62
2019-03-27 01:00:00 13.7 27 Este 68 Sudeste 0 -- -- 62
2019-03-27 00:00:00 14 29 Este 66 Este 0 -- -- 62
2019-03-26 23:00:00 14.1 29 Este 74 Este 0 -- -- 67
2019-03-26 22:00:00 14.5 24 Este 58 Este 0 -- -- 65
2019-03-26 21:00:00 14.6 24 Sudeste 59 Este 0 -- -- 66
2019-03-26 20:00:00 14.4 22 Este 60 Sudeste 0 -- -- 70
2019-03-26 19:00:00 15.2 28 Este 65 Este 0 -- -- 65
2019-03-26 18:00:00 16 23 Este 50 Este 0 -- -- 60
2019-03-26 17:00:00 16 20 Este 54 Este 0 -- -- 58
2019-03-26 16:00:00 16.6 23 Este 63 Este 0 -- -- 54
2019-03-26 15:00:00 17.4 30 Este 76 Este 0 -- -- 46
2019-03-26 14:00:00 17.7 35 Este 82 Este 0 -- -- 42
2019-03-26 13:00:00 18 31 Este 69 Este 0 -- -- 46
2019-03-26 12:00:00 17.1 26 Este 72 Este 0 -- -- 55
2019-03-26 11:00:00 18 23 Este 61 Este 0 -- -- 56
2019-03-26 10:00:00 16.9 26 Este 56 Este 0 -- -- 59
2019-03-26 09:00:00 15.9 20 Este 49 Sudeste 0 -- -- 63
2019-03-26 08:00:00 14.6 18 Este 58 Este 0 -- -- 68
2019-03-26 07:00:00 14.5 25 Este 57 Este 0 -- -- 70
2019-03-26 06:00:00 14.2 21 Este 53 Este 0 -- -- 74
2019-03-26 05:00:00 14.3 20 Este 55 Este 0 -- -- 74
2019-03-26 04:00:00 14.3 21 Este 52 Este 0 -- -- 75
2019-03-26 03:00:00 14.6 26 Este 57 Este 0 -- -- 73
2019-03-26 02:00:00 14.6 23 Este 55 Nordeste 0 -- -- 73
2019-03-26 01:00:00 14.6 21 Este 47 Este 0 -- -- 73
2019-03-26 00:00:00 14.5 21 Este 54 Este 0 -- -- 73
2019-03-25 23:00:00 14.1 17 Este 49 Este 0 -- -- 77
2019-03-25 22:00:00 14 17 Este 40 Este 0 -- -- 77
2019-03-25 21:00:00 14.4 20 Este 40 Este 0 -- -- 72
2019-03-25 20:00:00 15 17 Este 44 Este 0 -- -- 67
2019-03-25 19:00:00 15.7 17 Este 46 Este 0 -- -- 67
2019-03-25 18:00:00 16.9 19 Este 53 Este 0 -- -- 62
2019-03-25 17:00:00 18.1 18 Este 59 Este 0 -- -- 61
2019-03-25 16:00:00 18.3 23 Este 57 Este 0 -- -- 60
2019-03-25 15:00:00 18.3 24 Este 62 Este 0 -- -- 60
2019-03-25 14:00:00 18.9 26 Este 64 Este 0 -- -- 58
2019-03-25 13:00:00 18.8 26 Este 55 Este 0 -- -- 60
2019-03-25 12:00:00 18.1 21 Este 47 Este 0 -- -- 62
2019-03-25 11:00:00 17.6 24 Este 45 Este 0 -- -- 66
2019-03-25 10:00:00 16.9 19 Este 41 Este 0 -- -- 69
2019-03-25 09:00:00 14.4 12 Este 32 Este 0 -- -- 81
2019-03-25 08:00:00 13.4 13 Este 33 Este 0 -- -- 85
2019-03-25 07:00:00 13.2 13 Este 29 Este 0 -- -- 84
2019-03-25 06:00:00 13.3 13 Este 35 Este 0 -- -- 84
2019-03-25 05:00:00 13.4 16 Este 38 Este 0 -- -- 84
2019-03-25 04:00:00 13.4 14 Este 35 Este 0 -- -- 85
2019-03-25 03:00:00 13.3 13 Este 37 Este 0 -- -- 84
2019-03-25 02:00:00 13.4 12 Este 31 Este 0 -- -- 84
2019-03-25 01:00:00 13 14 Este 32 Este 0 -- -- 83
2019-03-25 00:00:00 13.3 11 Este 24 Este 0 -- -- 82